createdAt,value
2018-02-07T00:01:46.933Z,9.50
2018-02-07T00:04:14.494Z,9.55
2018-02-07T00:06:40.569Z,10.45
2018-02-07T00:09:06.665Z,9.10
2018-02-07T00:11:33.469Z,9.82
2018-02-07T00:13:59.723Z,8.23
2018-02-07T00:16:26.534Z,8.88
2018-02-07T00:18:52.611Z,10.45
2018-02-07T00:21:18.702Z,11.23
2018-02-07T00:23:44.804Z,8.73
2018-02-07T00:26:11.297Z,10.80
2018-02-07T00:28:37.374Z,9.98
2018-02-07T00:31:03.461Z,10.10
2018-02-07T00:33:29.537Z,9.80
2018-02-07T00:35:55.605Z,7.90
2018-02-07T00:38:21.934Z,9.30
2018-02-07T00:40:47.997Z,8.70
2018-02-07T00:43:14.070Z,8.55
2018-02-07T00:45:40.166Z,8.95
2018-02-07T00:48:06.229Z,8.93
2018-02-07T00:50:32.301Z,9.68
2018-02-07T00:52:58.397Z,8.25
2018-02-07T00:55:24.465Z,9.27
2018-02-07T00:57:50.545Z,9.00
2018-02-07T01:00:17.145Z,9.05
2018-02-07T01:02:43.953Z,9.07
2018-02-07T01:05:10.021Z,8.43
2018-02-07T01:07:36.091Z,8.40
2018-02-07T01:10:02.198Z,8.73
2018-02-07T01:12:28.254Z,8.32
2018-02-07T01:14:54.484Z,9.38
2018-02-07T01:17:20.569Z,8.93
2018-02-07T01:19:46.637Z,8.07
2018-02-07T01:22:12.724Z,9.32
2018-02-07T01:24:38.802Z,8.88
2018-02-07T01:27:05.341Z,8.40
2018-02-07T01:29:32.108Z,7.30
2018-02-07T01:31:58.178Z,7.82
2018-02-07T01:34:24.249Z,8.77
2018-02-07T01:36:51.121Z,9.30
2018-02-07T01:39:17.189Z,8.45
2018-02-07T01:41:43.249Z,8.05
2018-02-07T01:44:09.312Z,8.85
2018-02-07T01:46:35.401Z,8.02
2018-02-07T01:49:01.462Z,9.07
2018-02-07T01:51:27.525Z,8.18
2018-02-07T01:53:53.593Z,7.85
2018-02-07T01:56:19.665Z,8.15
2018-02-07T01:58:45.762Z,7.12
2018-02-07T02:01:12.517Z,8.13
2018-02-07T02:03:38.600Z,7.95
2018-02-07T02:06:04.671Z,9.52
2018-02-07T02:08:30.749Z,9.02
2018-02-07T02:10:56.817Z,8.82
2018-02-07T02:13:22.881Z,8.52
2018-02-07T02:15:48.977Z,9.15
2018-02-07T02:18:16.030Z,8.55
2018-02-07T02:20:42.122Z,9.50
2018-02-07T02:23:08.185Z,9.25
2018-02-07T02:25:34.253Z,8.93
2018-02-07T02:28:00.355Z,8.68
2018-02-07T02:30:26.427Z,9.05
2018-02-07T02:32:52.496Z,8.88
2018-02-07T02:35:18.569Z,8.90
2018-02-07T02:37:44.638Z,9.35
2018-02-07T02:40:10.722Z,8.43
2018-02-07T02:42:36.790Z,9.60
2018-02-07T02:45:02.869Z,8.80
2018-02-07T02:47:28.963Z,8.90
2018-02-07T02:49:55.030Z,8.23
2018-02-07T02:52:21.501Z,9.45
2018-02-07T02:54:48.329Z,9.15
2018-02-07T02:57:14.401Z,8.25
2018-02-07T02:59:40.501Z,6.90
2018-02-07T03:02:06.570Z,9.10
2018-02-07T03:04:32.633Z,9.13
2018-02-07T03:06:58.721Z,8.98
2018-02-07T03:09:24.802Z,8.82
2018-02-07T03:11:50.865Z,8.07
2018-02-07T03:14:16.961Z,8.63
2018-02-07T03:16:43.048Z,7.78
2018-02-07T03:19:09.121Z,9.70
2018-02-07T03:21:35.213Z,8.40
2018-02-07T03:24:01.289Z,8.52
2018-02-07T03:26:27.353Z,9.85
2018-02-07T03:28:53.443Z,8.77
2018-02-07T03:31:19.513Z,7.97
2018-02-07T03:33:45.645Z,9.90
2018-02-07T03:36:12.469Z,8.88
2018-02-07T03:38:38.529Z,10.75
2018-02-07T03:41:04.597Z,9.00
2018-02-07T03:43:30.675Z,10.45
2018-02-07T03:45:56.749Z,8.70
2018-02-07T03:48:22.809Z,9.00
2018-02-07T03:50:49.633Z,9.38
2018-02-07T03:53:15.688Z,8.27
2018-02-07T03:55:42.514Z,9.23
2018-02-07T03:58:08.570Z,9.45
2018-02-07T04:00:34.633Z,8.27
2018-02-07T04:03:00.723Z,8.68
2018-02-07T04:05:26.793Z,8.00
2018-02-07T04:07:52.862Z,9.63
2018-02-07T04:10:18.946Z,8.82
2018-02-07T04:12:45.024Z,7.90
2018-02-07T04:15:11.090Z,9.40
2018-02-07T04:17:37.182Z,8.02
2018-02-07T04:20:03.256Z,9.05
2018-02-07T04:22:29.319Z,8.98
2018-02-07T04:24:55.406Z,9.40
2018-02-07T04:27:21.737Z,10.85
2018-02-07T04:29:47.809Z,7.85
2018-02-07T04:32:13.885Z,8.30
2018-02-07T04:34:39.959Z,8.85
2018-02-07T04:37:06.054Z,8.82
2018-02-07T04:39:32.130Z,8.88
2018-02-07T04:41:58.885Z,8.98
2018-02-07T04:44:24.963Z,8.93
2018-02-07T04:46:51.032Z,9.55
2018-02-07T04:49:17.105Z,8.25
2018-02-07T04:51:43.928Z,8.88
2018-02-07T04:54:10.781Z,9.02
2018-02-07T04:56:37.602Z,8.63
2018-02-07T04:59:03.670Z,8.77
2018-02-07T05:01:29.728Z,9.02
2018-02-07T05:03:55.803Z,9.40
2018-02-07T05:06:22.621Z,8.15
2018-02-07T05:08:48.690Z,8.95
2018-02-07T05:11:14.765Z,9.45
2018-02-07T05:13:40.850Z,9.10
2018-02-07T05:16:06.921Z,9.13
2018-02-07T05:18:33.000Z,9.30
2018-02-07T05:20:59.117Z,10.23
2018-02-07T05:23:25.183Z,9.02
2018-02-07T05:25:51.257Z,9.45
2018-02-07T05:28:17.337Z,10.35
2018-02-07T05:30:43.402Z,8.45
2018-02-07T05:33:09.912Z,9.30
2018-02-07T05:35:35.977Z,9.73
2018-02-07T05:38:02.037Z,9.18
2018-02-07T05:40:28.126Z,9.60
2018-02-07T05:42:54.791Z,9.30
2018-02-07T05:45:20.857Z,10.77
2018-02-07T05:47:47.681Z,8.63
2018-02-07T05:50:13.825Z,9.52
2018-02-07T05:52:39.898Z,10.07
2018-02-07T05:55:05.961Z,11.40
2018-02-07T05:57:32.313Z,9.38
2018-02-07T05:59:59.109Z,11.38
2018-02-07T06:02:25.182Z,10.45
2018-02-07T06:04:51.254Z,10.90
2018-02-07T06:07:17.326Z,10.88
2018-02-07T06:09:43.401Z,9.73
2018-02-07T06:12:09.465Z,10.95
2018-02-07T06:14:35.555Z,11.95
2018-02-07T06:17:01.629Z,9.10
2018-02-07T06:19:28.522Z,11.27
2018-02-07T06:21:54.688Z,10.35
2018-02-07T06:24:20.753Z,9.93
2018-02-07T06:26:46.842Z,10.80
2018-02-07T06:29:12.910Z,10.15
2018-02-07T06:31:38.974Z,10.90
2018-02-07T06:34:11.978Z,10.18
2018-02-07T06:36:38.836Z,10.02
2018-02-07T06:39:04.914Z,11.23
2018-02-07T06:41:30.991Z,10.30
2018-02-07T06:43:57.078Z,10.52
2018-02-07T06:46:23.157Z,10.70
2018-02-07T06:48:49.225Z,9.82
2018-02-07T06:51:15.557Z,10.02
2018-02-07T06:53:41.637Z,12.30
2018-02-07T06:56:08.545Z,10.25
2018-02-07T06:58:34.670Z,10.73
2018-02-07T07:01:00.874Z,10.48
2018-02-07T07:03:26.965Z,11.20
2018-02-07T07:05:53.030Z,11.40
2018-02-07T07:08:19.105Z,11.18
2018-02-07T07:10:45.193Z,9.55
2018-02-07T07:13:11.254Z,9.65
2018-02-07T07:15:37.325Z,10.50
2018-02-07T07:18:03.418Z,10.80
2018-02-07T07:20:29.486Z,11.70
2018-02-07T07:22:55.550Z,12.48
2018-02-07T07:25:21.721Z,10.82
2018-02-07T07:27:47.789Z,11.45
2018-02-07T07:30:14.098Z,12.15
2018-02-07T07:32:40.181Z,10.35
2018-02-07T07:35:06.237Z,10.60
2018-02-07T07:37:32.325Z,11.75
2018-02-07T07:39:58.400Z,11.07
2018-02-07T07:42:25.218Z,9.40
2018-02-07T07:44:51.285Z,9.90
2018-02-07T07:47:17.359Z,10.73
2018-02-07T07:49:43.445Z,11.23
2018-02-07T07:52:09.517Z,11.60
2018-02-07T07:54:35.605Z,11.48
2018-02-07T07:57:01.773Z,12.10
2018-02-07T07:59:27.849Z,11.00
2018-02-07T08:01:53.921Z,12.73
2018-02-07T08:04:20.056Z,13.05
2018-02-07T08:06:46.158Z,11.95
2018-02-07T08:09:12.234Z,11.23
2018-02-07T08:11:38.318Z,11.52
2018-02-07T08:14:04.382Z,10.75
2018-02-07T08:16:31.212Z,11.60
2018-02-07T08:18:57.315Z,11.77
2018-02-07T08:21:23.386Z,10.82
2018-02-07T08:23:49.477Z,12.18
2018-02-07T08:26:15.545Z,12.82
2018-02-07T08:28:41.633Z,11.82
2018-02-07T08:31:07.725Z,11.43
2018-02-07T08:33:33.802Z,11.70
2018-02-07T08:36:00.613Z,9.90
2018-02-07T08:38:26.945Z,10.40
2018-02-07T08:40:53.027Z,9.30
2018-02-07T08:43:19.093Z,11.05
2018-02-07T08:45:45.176Z,9.10
2018-02-07T08:48:11.264Z,10.55
2018-02-07T08:50:37.325Z,10.82
2018-02-07T08:53:03.393Z,13.30
2018-02-07T08:55:29.512Z,11.70
2018-02-07T08:57:55.549Z,9.43
2018-02-07T09:00:21.629Z,10.32
2018-02-07T09:02:47.915Z,11.20
2018-02-07T09:05:13.986Z,9.60
2018-02-07T09:07:40.092Z,10.52
2018-02-07T09:10:06.226Z,9.88
2018-02-07T09:12:32.489Z,10.80
2018-02-07T09:14:58.584Z,9.32
2018-02-07T09:17:24.645Z,10.90
2018-02-07T09:19:50.730Z,9.40
2018-02-07T09:22:16.857Z,9.88
2018-02-07T09:24:42.930Z,9.48
2018-02-07T09:27:09.003Z,10.35
2018-02-07T09:29:35.135Z,9.85
2018-02-07T09:32:01.425Z,9.07
2018-02-07T09:34:27.493Z,9.10
2018-02-07T09:36:53.552Z,9.85
2018-02-07T09:39:19.628Z,10.55
2018-02-07T09:41:45.709Z,8.32
2018-02-07T09:44:11.801Z,8.60
2018-02-07T09:46:37.881Z,9.68
2018-02-07T09:49:04.054Z,9.10
2018-02-07T09:51:30.128Z,9.82
2018-02-07T09:53:56.954Z,9.52
2018-02-07T09:56:23.301Z,10.23
2018-02-07T09:58:49.400Z,7.93
2018-02-07T10:01:15.521Z,9.85
2018-02-07T10:03:41.594Z,9.32
2018-02-07T10:06:08.414Z,9.18
2018-02-07T10:08:34.477Z,9.00
2018-02-07T10:11:00.540Z,9.80
2018-02-07T10:13:26.626Z,10.00
2018-02-07T10:15:52.702Z,9.25
2018-02-07T10:18:18.777Z,9.43
2018-02-07T10:20:44.869Z,8.52
2018-02-07T10:23:10.940Z,8.52
2018-02-07T10:25:37.028Z,8.50
2018-02-07T10:28:03.114Z,7.62
2018-02-07T10:30:29.185Z,7.78
2018-02-07T10:32:55.301Z,8.35
2018-02-07T10:35:22.153Z,8.05
2018-02-07T10:37:48.344Z,7.68
2018-02-07T10:40:14.438Z,7.80
2018-02-07T10:42:40.509Z,7.90
2018-02-07T10:45:06.569Z,8.20
2018-02-07T10:47:32.666Z,7.90
2018-02-07T10:49:58.809Z,8.70
2018-02-07T10:52:25.035Z,8.93
2018-02-07T10:54:51.133Z,8.63
2018-02-07T10:57:18.874Z,9.20
2018-02-07T10:59:45.438Z,8.40
2018-02-07T11:02:11.517Z,7.72
2018-02-07T11:04:37.916Z,7.82
2018-02-07T11:07:04.012Z,8.02
2018-02-07T11:09:30.172Z,7.62
2018-02-07T11:11:56.281Z,8.15
2018-02-07T11:14:22.346Z,8.20
2018-02-07T11:16:48.416Z,7.43
2018-02-07T11:19:14.517Z,7.53
2018-02-07T11:21:40.585Z,7.80
2018-02-07T11:24:07.394Z,7.30
2018-02-07T11:26:33.503Z,8.18
2018-02-07T11:28:59.556Z,7.03
2018-02-07T11:31:25.637Z,7.53
2018-02-07T11:33:51.726Z,7.47
2018-02-07T11:36:18.533Z,7.53
2018-02-07T11:38:44.601Z,6.47
2018-02-07T11:41:10.669Z,7.30
2018-02-07T11:43:36.751Z,7.90
2018-02-07T11:46:03.572Z,7.60
2018-02-07T11:48:29.642Z,9.52
2018-02-07T11:50:55.769Z,7.97
2018-02-07T11:53:21.853Z,8.93
2018-02-07T11:55:47.927Z,8.02
2018-02-07T11:58:14.005Z,7.30
2018-02-07T12:00:40.853Z,7.65
2018-02-07T12:03:07.677Z,7.75
2018-02-07T12:05:33.745Z,7.32
2018-02-07T12:07:59.815Z,6.90
2018-02-07T12:10:25.883Z,8.75
2018-02-07T12:12:51.977Z,9.32
2018-02-07T12:15:18.058Z,8.25
2018-02-07T12:17:44.914Z,8.30
2018-02-07T12:20:11.010Z,9.23
2018-02-07T12:22:37.095Z,7.65
2018-02-07T12:25:03.170Z,8.30
2018-02-07T12:27:29.261Z,8.07
2018-02-07T12:30:02.326Z,8.80
2018-02-07T12:32:28.911Z,8.70
2018-02-07T12:34:54.992Z,9.38
2018-02-07T12:37:21.062Z,9.25
2018-02-07T12:39:47.143Z,8.55
2018-02-07T12:42:13.226Z,8.13
2018-02-07T12:44:39.306Z,7.28
2018-02-07T12:47:05.398Z,8.38
2018-02-07T12:49:31.478Z,10.60
2018-02-07T12:51:57.553Z,9.10
2018-02-07T12:54:24.037Z,13.85
2018-02-07T12:56:50.097Z,9.70
2018-02-07T12:59:16.165Z,8.52
2018-02-07T13:01:42.257Z,8.77
2018-02-07T13:04:08.342Z,8.85
2018-02-07T13:06:34.431Z,8.00
2018-02-07T13:09:00.533Z,8.70
2018-02-07T13:11:26.597Z,8.90
2018-02-07T13:13:52.801Z,8.30
2018-02-07T13:16:18.875Z,8.00
2018-02-07T13:18:44.971Z,8.30
2018-02-07T13:21:11.781Z,7.40
2018-02-07T13:23:37.923Z,9.30
2018-02-07T13:26:04.258Z,8.25
2018-02-07T13:28:30.346Z,9.05
2018-02-07T13:30:56.430Z,8.57
2018-02-07T13:33:22.501Z,8.55
2018-02-07T13:35:49.052Z,8.82
2018-02-07T13:38:15.139Z,9.65
2018-02-07T13:40:41.248Z,8.52
2018-02-07T13:43:07.391Z,7.95
2018-02-07T13:45:33.486Z,7.72
2018-02-07T13:47:59.594Z,8.52
2018-02-07T13:50:25.681Z,9.10
2018-02-07T13:52:51.749Z,8.50
2018-02-07T13:55:17.858Z,9.55
2018-02-07T13:57:43.935Z,10.10
2018-02-07T14:00:10.018Z,9.48
2018-02-07T14:02:36.114Z,9.57
2018-02-07T14:05:02.224Z,9.90
2018-02-07T14:07:28.300Z,9.38
2018-02-07T14:09:55.961Z,9.57
2018-02-07T14:12:22.035Z,8.35
2018-02-07T14:14:48.113Z,9.85
2018-02-07T14:17:14.219Z,8.10
2018-02-07T14:19:40.302Z,8.98
2018-02-07T14:22:06.473Z,9.20
2018-02-07T14:24:32.823Z,8.27
2018-02-07T14:26:58.895Z,9.65
2018-02-07T14:29:24.992Z,9.65
2018-02-07T14:31:51.863Z,7.87
2018-02-07T14:34:17.966Z,8.20
2018-02-07T14:36:44.047Z,8.60
2018-02-07T14:39:10.118Z,8.48
2018-02-07T14:41:36.198Z,9.18
2018-02-07T14:44:02.269Z,8.35
2018-02-07T14:46:28.352Z,9.25
2018-02-07T14:48:54.432Z,8.73
2018-02-07T14:51:20.930Z,8.85
2018-02-07T14:53:47.785Z,9.15
2018-02-07T14:56:13.859Z,9.23
2018-02-07T14:58:39.933Z,9.32
2018-02-07T15:01:06.012Z,9.00
2018-02-07T15:03:32.098Z,9.45
2018-02-07T15:05:58.177Z,9.52
2018-02-07T15:08:24.251Z,8.68
2018-02-07T15:10:50.337Z,8.05
2018-02-07T15:13:16.409Z,8.00
2018-02-07T15:15:42.493Z,9.10
2018-02-07T15:18:08.561Z,8.52
2018-02-07T15:20:34.637Z,9.68
2018-02-07T15:23:00.730Z,7.95
2018-02-07T15:25:26.789Z,8.02
2018-02-07T15:27:52.859Z,8.52
2018-02-07T15:30:18.960Z,8.70
2018-02-07T15:32:45.026Z,8.65
2018-02-07T15:35:11.106Z,8.30
2018-02-07T15:37:37.230Z,8.32
2018-02-07T15:40:03.320Z,7.18
2018-02-07T15:42:29.398Z,8.65
2018-02-07T15:44:55.489Z,7.97
2018-02-07T15:47:21.574Z,8.05
2018-02-07T15:49:47.640Z,7.93
2018-02-07T15:52:13.777Z,10.43
2018-02-07T15:54:39.849Z,8.43
2018-02-07T15:57:05.926Z,8.00
2018-02-07T15:59:32.761Z,8.48
2018-02-07T16:01:58.841Z,8.13
2018-02-07T16:04:24.920Z,7.87
2018-02-07T16:06:51.005Z,9.98
2018-02-07T16:09:17.087Z,7.28
2018-02-07T16:11:43.900Z,7.35
2018-02-07T16:14:10.002Z,8.15
2018-02-07T16:16:36.093Z,9.23
2018-02-07T16:19:02.220Z,8.95
2018-02-07T16:21:28.309Z,8.80
2018-02-07T16:23:54.381Z,9.70
2018-02-07T16:26:20.482Z,9.20
2018-02-07T16:28:46.550Z,8.45
2018-02-07T16:31:12.624Z,9.40
2018-02-07T16:33:38.714Z,9.05
2018-02-07T16:36:04.789Z,9.43
2018-02-07T16:38:30.867Z,9.45
2018-02-07T16:40:56.943Z,8.75
2018-02-07T16:43:23.016Z,8.40
2018-02-07T16:45:49.101Z,10.10
2018-02-07T16:48:15.169Z,8.93
2018-02-07T16:50:41.245Z,9.07
2018-02-07T16:53:07.349Z,8.45
2018-02-07T16:55:33.401Z,10.52
2018-02-07T16:57:59.580Z,11.25
2018-02-07T17:00:25.668Z,13.35
2018-02-07T17:02:51.750Z,11.27
2018-02-07T17:05:18.572Z,9.52
2018-02-07T17:07:44.646Z,8.98
2018-02-07T17:10:10.726Z,9.48
2018-02-07T17:12:36.816Z,9.32
2018-02-07T17:15:02.917Z,9.50
2018-02-07T17:17:29.221Z,9.20
2018-02-07T17:19:55.325Z,10.40
2018-02-07T17:22:21.404Z,9.55
2018-02-07T17:24:47.473Z,8.82
2018-02-07T17:27:13.538Z,10.43
2018-02-07T17:29:39.605Z,10.98
2018-02-07T17:32:05.696Z,10.35
2018-02-07T17:34:31.769Z,8.85
2018-02-07T17:36:57.834Z,9.63
2018-02-07T17:39:23.913Z,10.30
2018-02-07T17:41:50.008Z,10.55
2018-02-07T17:44:16.088Z,10.38
2018-02-07T17:46:42.184Z,9.77
2018-02-07T17:49:08.247Z,9.65
2018-02-07T17:51:34.335Z,9.15
2018-02-07T17:54:00.421Z,10.05
2018-02-07T17:56:26.489Z,9.68
2018-02-07T17:58:52.557Z,9.90
2018-02-07T18:01:18.630Z,10.13
2018-02-07T18:03:44.694Z,9.85
2018-02-07T18:06:10.784Z,9.02
2018-02-07T18:08:36.854Z,9.43
2018-02-07T18:11:02.926Z,9.48
2018-02-07T18:13:29.015Z,10.88
2018-02-07T18:15:55.072Z,8.07
2018-02-07T18:18:21.537Z,10.88
2018-02-07T18:20:47.641Z,10.13
2018-02-07T18:23:13.713Z,9.25
2018-02-07T18:25:39.866Z,9.60
2018-02-07T18:28:05.967Z,11.25
2018-02-07T18:30:32.047Z,10.65
2018-02-07T18:32:58.117Z,9.57
2018-02-07T18:35:24.197Z,9.40
2018-02-07T18:37:50.257Z,10.63
2018-02-07T18:40:17.069Z,10.68
2018-02-07T18:42:43.134Z,9.85
2018-02-07T18:45:09.218Z,9.85
2018-02-07T18:47:35.314Z,10.68
2018-02-07T18:50:01.386Z,11.32
2018-02-07T18:52:27.455Z,11.02
2018-02-07T18:54:54.482Z,10.05
2018-02-07T18:57:20.577Z,10.32
2018-02-07T18:59:46.670Z,11.63
2018-02-07T19:02:12.772Z,11.48
2018-02-07T19:04:38.857Z,11.57
2018-02-07T19:07:04.925Z,11.25
2018-02-07T19:09:31.001Z,9.85
2018-02-07T19:11:57.090Z,10.00
2018-02-07T19:14:23.173Z,10.95
2018-02-07T19:16:49.253Z,11.90
2018-02-07T19:19:15.338Z,12.23
2018-02-07T19:21:41.409Z,11.73
2018-02-07T19:24:07.506Z,12.05
2018-02-07T19:26:34.018Z,11.75
2018-02-07T19:29:07.045Z,10.70
2018-02-07T19:31:33.125Z,10.93
2018-02-07T19:33:59.938Z,11.32
2018-02-07T19:36:26.011Z,12.20
2018-02-07T19:38:52.098Z,11.43
2018-02-07T19:41:18.179Z,13.18
2018-02-07T19:43:44.263Z,11.65
2018-02-07T19:46:11.085Z,12.15
2018-02-07T19:48:37.158Z,13.00
2018-02-07T19:51:03.238Z,12.77
2018-02-07T19:53:29.355Z,12.98
2018-02-07T19:55:55.442Z,13.20
2018-02-07T19:58:21.534Z,12.55
2018-02-07T20:00:48.874Z,11.90
2018-02-07T20:03:14.966Z,11.98
2018-02-07T20:05:41.085Z,12.80
2018-02-07T20:08:07.158Z,11.88
2018-02-07T20:10:33.994Z,11.90
2018-02-07T20:13:00.118Z,12.25
2018-02-07T20:15:26.931Z,11.95
2018-02-07T20:17:53.007Z,11.90
2018-02-07T20:20:19.410Z,12.80
2018-02-07T20:22:45.505Z,12.68
2018-02-07T20:25:11.585Z,12.30
2018-02-07T20:27:37.658Z,12.13
2018-02-07T20:30:03.761Z,11.70
2018-02-07T20:32:29.850Z,12.23
2018-02-07T20:34:56.674Z,12.05
2018-02-07T20:37:22.746Z,10.73
2018-02-07T20:39:48.825Z,12.75
2018-02-07T20:42:14.929Z,11.18
2018-02-07T20:44:41.002Z,10.68
2018-02-07T20:47:07.814Z,11.77
2018-02-07T20:49:33.885Z,11.70
2018-02-07T20:51:59.957Z,11.98
2018-02-07T20:54:26.041Z,11.82
2018-02-07T20:56:52.166Z,13.62
2018-02-07T20:59:18.941Z,13.23
2018-02-07T21:01:45.027Z,13.50
2018-02-07T21:04:11.118Z,15.40
2018-02-07T21:06:37.968Z,12.88
2018-02-07T21:09:04.525Z,12.45
2018-02-07T21:11:30.593Z,11.15
2018-02-07T21:13:56.678Z,12.48
2018-02-07T21:16:22.749Z,12.32
2018-02-07T21:18:48.834Z,13.02
2018-02-07T21:21:14.914Z,12.02
2018-02-07T21:23:41.001Z,12.68
2018-02-07T21:26:07.157Z,11.98
2018-02-07T21:28:33.238Z,10.15
2018-02-07T21:30:59.328Z,12.98
2018-02-07T21:33:25.434Z,13.05
2018-02-07T21:35:51.524Z,11.35
2018-02-07T21:38:17.613Z,12.82
2018-02-07T21:40:43.689Z,12.52
2018-02-07T21:43:09.775Z,12.50
2018-02-07T21:45:35.862Z,12.37
2018-02-07T21:48:01.963Z,14.90
2018-02-07T21:50:28.226Z,14.45
2018-02-07T21:52:54.306Z,13.93
2018-02-07T21:55:20.421Z,13.70
2018-02-07T21:57:46.485Z,15.95
2018-02-07T22:00:12.570Z,13.40
2018-02-07T22:02:38.648Z,13.73
2018-02-07T22:05:06.203Z,13.75
2018-02-07T22:07:32.270Z,12.00
2018-02-07T22:09:58.365Z,14.82
2018-02-07T22:12:24.437Z,16.30
2018-02-07T22:14:50.522Z,15.00
2018-02-07T22:17:17.344Z,15.50
2018-02-07T22:19:43.418Z,17.62
2018-02-07T22:22:09.854Z,17.92
2018-02-07T22:24:35.933Z,15.93
2018-02-07T22:27:02.010Z,15.63
2018-02-07T22:29:28.110Z,16.73
2018-02-07T22:31:54.933Z,14.20
2018-02-07T22:34:21.022Z,14.82
2018-02-07T22:36:47.095Z,15.85
2018-02-07T22:39:13.925Z,17.10
2018-02-07T22:41:39.997Z,15.95
2018-02-07T22:44:06.070Z,16.77
2018-02-07T22:46:32.153Z,13.93
2018-02-07T22:48:58.221Z,15.85
2018-02-07T22:51:24.297Z,16.67
2018-02-07T22:53:50.477Z,16.25
2018-02-07T22:56:17.297Z,17.33
2018-02-07T22:58:43.379Z,16.35
2018-02-07T23:01:09.485Z,16.27
2018-02-07T23:03:35.577Z,17.23
2018-02-07T23:06:01.680Z,18.08
2018-02-07T23:08:27.761Z,17.70
2018-02-07T23:10:53.840Z,16.37
2018-02-07T23:13:19.924Z,17.12
2018-02-07T23:15:46.037Z,18.83
2018-02-07T23:18:12.881Z,18.65
2018-02-07T23:20:39.696Z,17.27
2018-02-07T23:23:05.766Z,18.77
2018-02-07T23:25:31.903Z,20.25
2018-02-07T23:27:57.976Z,21.08
2018-02-07T23:30:24.072Z,18.50
2018-02-07T23:32:50.143Z,18.98
2018-02-07T23:35:16.225Z,16.35
2018-02-07T23:37:42.314Z,17.98
2018-02-07T23:40:08.414Z,16.83
2018-02-07T23:42:34.477Z,14.55
2018-02-07T23:45:00.553Z,15.70
2018-02-07T23:47:26.623Z,14.82
2018-02-07T23:49:52.705Z,13.55
2018-02-07T23:52:18.803Z,15.07
2018-02-07T23:54:44.897Z,14.85
2018-02-07T23:57:10.986Z,15.85
2018-02-07T23:59:37.861Z,14.27
